sensor_id;sensor_type;location;lat;lon;timestamp;P1;durP1;ratioP1;P2;durP2;ratioP2
63653;SDS011;49809;47.418;19.080;2024-03-17T00:00:31;2.47;;;0.80;;
63653;SDS011;49809;47.418;19.080;2024-03-17T00:03:34;2.10;;;1.12;;
63653;SDS011;49809;47.418;19.080;2024-03-17T00:06:38;1.40;;;0.90;;
63653;SDS011;49809;47.418;19.080;2024-03-17T00:09:40;1.67;;;0.90;;
63653;SDS011;49809;47.418;19.080;2024-03-17T00:12:43;1.77;;;0.90;;
63653;SDS011;49809;47.418;19.080;2024-03-17T00:15:48;1.20;;;0.80;;
63653;SDS011;49809;47.418;19.080;2024-03-17T00:18:50;1.92;;;0.90;;
63653;SDS011;49809;47.418;19.080;2024-03-17T00:21:52;1.60;;;0.85;;
63653;SDS011;49809;47.418;19.080;2024-03-17T00:25:16;1.37;;;0.98;;
63653;SDS011;49809;47.418;19.080;2024-03-17T00:28:21;2.05;;;0.90;;
63653;SDS011;49809;47.418;19.080;2024-03-17T00:31:23;1.50;;;1.10;;
63653;SDS011;49809;47.418;19.080;2024-03-17T00:34:28;1.42;;;0.90;;
63653;SDS011;49809;47.418;19.080;2024-03-17T00:37:30;1.45;;;1.00;;
63653;SDS011;49809;47.418;19.080;2024-03-17T00:40:33;1.05;;;0.80;;
63653;SDS011;49809;47.418;19.080;2024-03-17T00:43:38;1.40;;;0.77;;
63653;SDS011;49809;47.418;19.080;2024-03-17T00:46:43;1.92;;;1.00;;
63653;SDS011;49809;47.418;19.080;2024-03-17T00:49:46;1.23;;;0.90;;
63653;SDS011;49809;47.418;19.080;2024-03-17T00:52:52;1.50;;;1.00;;
63653;SDS011;49809;47.418;19.080;2024-03-17T00:55:57;1.90;;;1.10;;
63653;SDS011;49809;47.418;19.080;2024-03-17T00:59:04;1.20;;;0.80;;
63653;SDS011;49809;47.418;19.080;2024-03-17T01:02:26;2.08;;;1.02;;
63653;SDS011;49809;47.418;19.080;2024-03-17T01:05:28;1.10;;;0.90;;
63653;SDS011;49809;47.418;19.080;2024-03-17T01:08:32;2.17;;;0.90;;
63653;SDS011;49809;47.418;19.080;2024-03-17T01:11:45;1.27;;;1.00;;
63653;SDS011;49809;47.418;19.080;2024-03-17T01:14:46;1.48;;;1.12;;
63653;SDS011;49809;47.418;19.080;2024-03-17T01:17:48;2.55;;;1.10;;
63653;SDS011;49809;47.418;19.080;2024-03-17T01:20:52;1.50;;;1.10;;
63653;SDS011;49809;47.418;19.080;2024-03-17T01:23:56;1.98;;;1.10;;
63653;SDS011;49809;47.418;19.080;2024-03-17T01:26:58;2.65;;;1.15;;
63653;SDS011;49809;47.418;19.080;2024-03-17T01:30:27;2.25;;;1.20;;
63653;SDS011;49809;47.418;19.080;2024-03-17T01:33:28;1.20;;;1.00;;
63653;SDS011;49809;47.418;19.080;2024-03-17T01:36:33;1.70;;;1.15;;
63653;SDS011;49809;47.418;19.080;2024-03-17T01:39:36;2.00;;;1.30;;
63653;SDS011;49809;47.418;19.080;2024-03-17T01:42:38;1.70;;;1.50;;
63653;SDS011;49809;47.418;19.080;2024-03-17T01:45:43;3.12;;;1.55;;
63653;SDS011;49809;47.418;19.080;2024-03-17T01:48:45;1.67;;;1.17;;
63653;SDS011;49809;47.418;19.080;2024-03-17T01:51:48;2.40;;;1.65;;
63653;SDS011;49809;47.418;19.080;2024-03-17T01:54:51;1.60;;;1.40;;
63653;SDS011;49809;47.418;19.080;2024-03-17T01:57:56;2.75;;;1.42;;
63653;SDS011;49809;47.418;19.080;2024-03-17T02:01:02;2.60;;;1.57;;
63653;SDS011;49809;47.418;19.080;2024-03-17T02:04:08;2.95;;;1.80;;
63653;SDS011;49809;47.418;19.080;2024-03-17T02:07:10;1.95;;;1.58;;
63653;SDS011;49809;47.418;19.080;2024-03-17T02:10:14;2.75;;;1.60;;
63653;SDS011;49809;47.418;19.080;2024-03-17T02:13:16;4.28;;;1.75;;
63653;SDS011;49809;47.418;19.080;2024-03-17T02:16:22;3.50;;;1.58;;
63653;SDS011;49809;47.418;19.080;2024-03-17T02:19:25;3.37;;;1.87;;
63653;SDS011;49809;47.418;19.080;2024-03-17T02:22:29;2.35;;;1.70;;
63653;SDS011;49809;47.418;19.080;2024-03-17T02:25:31;3.17;;;1.73;;
63653;SDS011;49809;47.418;19.080;2024-03-17T02:28:44;2.57;;;1.90;;
63653;SDS011;49809;47.418;19.080;2024-03-17T02:32:07;3.55;;;1.80;;
63653;SDS011;49809;47.418;19.080;2024-03-17T02:35:37;2.70;;;1.98;;
63653;SDS011;49809;47.418;19.080;2024-03-17T02:38:44;2.58;;;1.80;;
63653;SDS011;49809;47.418;19.080;2024-03-17T02:42:27;2.90;;;1.70;;
63653;SDS011;49809;47.418;19.080;2024-03-17T02:45:34;2.15;;;1.58;;
63653;SDS011;49809;47.418;19.080;2024-03-17T02:48:56;3.83;;;1.90;;
63653;SDS011;49809;47.418;19.080;2024-03-17T02:51:58;2.75;;;2.15;;
63653;SDS011;49809;47.418;19.080;2024-03-17T02:55:03;4.00;;;2.12;;
63653;SDS011;49809;47.418;19.080;2024-03-17T02:58:11;3.30;;;2.28;;
63653;SDS011;49809;47.418;19.080;2024-03-17T03:01:16;2.73;;;2.07;;
63653;SDS011;49809;47.418;19.080;2024-03-17T03:04:20;2.60;;;1.80;;
63653;SDS011;49809;47.418;19.080;2024-03-17T03:07:24;2.60;;;1.80;;
63653;SDS011;49809;47.418;19.080;2024-03-17T03:10:26;2.00;;;1.50;;
63653;SDS011;49809;47.418;19.080;2024-03-17T03:13:31;2.40;;;1.73;;
63653;SDS011;49809;47.418;19.080;2024-03-17T03:16:33;2.30;;;2.00;;
63653;SDS011;49809;47.418;19.080;2024-03-17T03:19:36;2.60;;;1.83;;
63653;SDS011;49809;47.418;19.080;2024-03-17T03:22:41;2.03;;;1.60;;
63653;SDS011;49809;47.418;19.080;2024-03-17T03:25:45;2.22;;;1.80;;
63653;SDS011;49809;47.418;19.080;2024-03-17T03:29:12;1.90;;;1.60;;
63653;SDS011;49809;47.418;19.080;2024-03-17T03:32:41;2.10;;;1.50;;
63653;SDS011;49809;47.418;19.080;2024-03-17T03:39:57;1.73;;;1.45;;
63653;SDS011;49809;47.418;19.080;2024-03-17T03:43:02;1.40;;;1.27;;
63653;SDS011;49809;47.418;19.080;2024-03-17T03:46:04;1.60;;;1.23;;
63653;SDS011;49809;47.418;19.080;2024-03-17T03:49:07;1.92;;;1.27;;
63653;SDS011;49809;47.418;19.080;2024-03-17T03:52:09;1.50;;;1.20;;
63653;SDS011;49809;47.418;19.080;2024-03-17T03:55:12;2.37;;;1.50;;
63653;SDS011;49809;47.418;19.080;2024-03-17T03:58:19;2.80;;;1.77;;
63653;SDS011;49809;47.418;19.080;2024-03-17T04:01:22;2.42;;;1.62;;
63653;SDS011;49809;47.418;19.080;2024-03-17T04:04:27;2.22;;;1.62;;
63653;SDS011;49809;47.418;19.080;2024-03-17T04:07:31;2.85;;;1.65;;
63653;SDS011;49809;47.418;19.080;2024-03-17T04:10:34;3.00;;;1.90;;
63653;SDS011;49809;47.418;19.080;2024-03-17T04:13:36;2.92;;;1.95;;
63653;SDS011;49809;47.418;19.080;2024-03-17T04:16:39;2.30;;;1.65;;
63653;SDS011;49809;47.418;19.080;2024-03-17T04:19:41;2.65;;;1.70;;
63653;SDS011;49809;47.418;19.080;2024-03-17T04:22:49;2.47;;;1.60;;
63653;SDS011;49809;47.418;19.080;2024-03-17T04:26:11;2.55;;;1.77;;
63653;SDS011;49809;47.418;19.080;2024-03-17T04:29:20;3.12;;;1.80;;
63653;SDS011;49809;47.418;19.080;2024-03-17T04:32:25;2.83;;;2.00;;
63653;SDS011;49809;47.418;19.080;2024-03-17T04:35:31;4.32;;;2.35;;
63653;SDS011;49809;47.418;19.080;2024-03-17T04:38:36;2.47;;;1.80;;
63653;SDS011;49809;47.418;19.080;2024-03-17T04:41:42;2.12;;;1.65;;
63653;SDS011;49809;47.418;19.080;2024-03-17T04:44:47;2.65;;;2.10;;
63653;SDS011;49809;47.418;19.080;2024-03-17T04:47:52;2.70;;;2.03;;
63653;SDS011;49809;47.418;19.080;2024-03-17T04:50:57;2.75;;;1.90;;
63653;SDS011;49809;47.418;19.080;2024-03-17T04:53:59;3.28;;;2.30;;
63653;SDS011;49809;47.418;19.080;2024-03-17T04:57:01;3.47;;;2.20;;
63653;SDS011;49809;47.418;19.080;2024-03-17T05:00:04;3.22;;;2.15;;
63653;SDS011;49809;47.418;19.080;2024-03-17T05:03:08;4.35;;;2.05;;
63653;SDS011;49809;47.418;19.080;2024-03-17T05:06:10;3.12;;;2.20;;
63653;SDS011;49809;47.418;19.080;2024-03-17T05:09:15;4.00;;;2.35;;
63653;SDS011;49809;47.418;19.080;2024-03-17T05:12:20;3.05;;;2.62;;
63653;SDS011;49809;47.418;19.080;2024-03-17T05:15:22;4.43;;;2.40;;
63653;SDS011;49809;47.418;19.080;2024-03-17T05:18:27;3.45;;;2.45;;
63653;SDS011;49809;47.418;19.080;2024-03-17T05:21:29;3.17;;;2.22;;
63653;SDS011;49809;47.418;19.080;2024-03-17T05:24:33;3.17;;;2.25;;
63653;SDS011;49809;47.418;19.080;2024-03-17T05:30:41;3.10;;;2.17;;
63653;SDS011;49809;47.418;19.080;2024-03-17T05:33:44;3.08;;;2.25;;
63653;SDS011;49809;47.418;19.080;2024-03-17T05:36:48;3.70;;;1.80;;
63653;SDS011;49809;47.418;19.080;2024-03-17T05:39:51;3.03;;;1.90;;
63653;SDS011;49809;47.418;19.080;2024-03-17T05:42:57;2.67;;;1.70;;
63653;SDS011;49809;47.418;19.080;2024-03-17T05:45:59;4.00;;;1.80;;
63653;SDS011;49809;47.418;19.080;2024-03-17T05:49:04;3.60;;;2.00;;
63653;SDS011;49809;47.418;19.080;2024-03-17T05:52:28;3.65;;;1.90;;
63653;SDS011;49809;47.418;19.080;2024-03-17T05:55:37;3.12;;;1.95;;
63653;SDS011;49809;47.418;19.080;2024-03-17T05:58:46;4.28;;;1.70;;
63653;SDS011;49809;47.418;19.080;2024-03-17T06:02:10;3.15;;;2.03;;
63653;SDS011;49809;47.418;19.080;2024-03-17T06:05:12;2.92;;;1.80;;
63653;SDS011;49809;47.418;19.080;2024-03-17T06:08:15;2.50;;;1.75;;
63653;SDS011;49809;47.418;19.080;2024-03-17T06:11:19;1.98;;;1.58;;
63653;SDS011;49809;47.418;19.080;2024-03-17T06:14:21;4.32;;;1.98;;
63653;SDS011;49809;47.418;19.080;2024-03-17T06:17:26;3.25;;;1.50;;
63653;SDS011;49809;47.418;19.080;2024-03-17T06:20:31;2.37;;;1.55;;
63653;SDS011;49809;47.418;19.080;2024-03-17T06:23:36;2.00;;;1.60;;
63653;SDS011;49809;47.418;19.080;2024-03-17T06:26:37;4.22;;;1.60;;
63653;SDS011;49809;47.418;19.080;2024-03-17T06:29:40;2.78;;;1.60;;
63653;SDS011;49809;47.418;19.080;2024-03-17T06:32:42;2.08;;;1.60;;
63653;SDS011;49809;47.418;19.080;2024-03-17T06:35:47;2.50;;;1.70;;
63653;SDS011;49809;47.418;19.080;2024-03-17T06:38:49;5.72;;;2.22;;
63653;SDS011;49809;47.418;19.080;2024-03-17T06:41:53;3.55;;;2.10;;
63653;SDS011;49809;47.418;19.080;2024-03-17T06:44:58;2.97;;;1.67;;
63653;SDS011;49809;47.418;19.080;2024-03-17T06:48:26;2.03;;;1.60;;
63653;SDS011;49809;47.418;19.080;2024-03-17T06:51:28;2.17;;;1.50;;
63653;SDS011;49809;47.418;19.080;2024-03-17T06:54:32;3.40;;;1.80;;
63653;SDS011;49809;47.418;19.080;2024-03-17T06:57:37;3.00;;;1.80;;
63653;SDS011;49809;47.418;19.080;2024-03-17T07:00:52;4.55;;;1.60;;
63653;SDS011;49809;47.418;19.080;2024-03-17T07:04:23;2.28;;;1.80;;
63653;SDS011;49809;47.418;19.080;2024-03-17T07:07:53;2.53;;;1.42;;
63653;SDS011;49809;47.418;19.080;2024-03-17T07:11:05;3.80;;;1.50;;
63653;SDS011;49809;47.418;19.080;2024-03-17T07:14:09;2.20;;;1.67;;
63653;SDS011;49809;47.418;19.080;2024-03-17T07:17:11;2.03;;;1.50;;
63653;SDS011;49809;47.418;19.080;2024-03-17T07:20:16;2.35;;;1.40;;
63653;SDS011;49809;47.418;19.080;2024-03-17T07:23:18;2.50;;;1.37;;
63653;SDS011;49809;47.418;19.080;2024-03-17T07:26:21;1.85;;;1.30;;
63653;SDS011;49809;47.418;19.080;2024-03-17T07:29:23;2.50;;;1.17;;
63653;SDS011;49809;47.418;19.080;2024-03-17T07:32:33;2.20;;;1.20;;
63653;SDS011;49809;47.418;19.080;2024-03-17T07:35:35;3.20;;;1.40;;
63653;SDS011;49809;47.418;19.080;2024-03-17T07:38:59;2.87;;;1.10;;
63653;SDS011;49809;47.418;19.080;2024-03-17T07:42:01;3.92;;;1.25;;
63653;SDS011;49809;47.418;19.080;2024-03-17T07:45:06;2.92;;;1.40;;
63653;SDS011;49809;47.418;19.080;2024-03-17T07:48:09;4.32;;;1.33;;
63653;SDS011;49809;47.418;19.080;2024-03-17T07:51:11;2.20;;;1.15;;
63653;SDS011;49809;47.418;19.080;2024-03-17T07:54:14;3.00;;;1.60;;
63653;SDS011;49809;47.418;19.080;2024-03-17T07:57:18;2.10;;;1.20;;
63653;SDS011;49809;47.418;19.080;2024-03-17T08:00:41;3.05;;;1.23;;
63653;SDS011;49809;47.418;19.080;2024-03-17T08:03:46;2.50;;;1.08;;
63653;SDS011;49809;47.418;19.080;2024-03-17T08:06:56;4.78;;;1.27;;
63653;SDS011;49809;47.418;19.080;2024-03-17T08:09:58;3.37;;;1.10;;
63653;SDS011;49809;47.418;19.080;2024-03-17T08:13:01;5.35;;;1.25;;
63653;SDS011;49809;47.418;19.080;2024-03-17T08:16:08;2.33;;;1.40;;
63653;SDS011;49809;47.418;19.080;2024-03-17T08:19:11;1.83;;;1.12;;
63653;SDS011;49809;47.418;19.080;2024-03-17T08:22:15;2.72;;;1.50;;
63653;SDS011;49809;47.418;19.080;2024-03-17T08:25:19;2.83;;;1.20;;
63653;SDS011;49809;47.418;19.080;2024-03-17T08:28:22;4.75;;;1.33;;
63653;SDS011;49809;47.418;19.080;2024-03-17T08:31:24;6.00;;;1.30;;
63653;SDS011;49809;47.418;19.080;2024-03-17T08:34:29;2.40;;;1.40;;
63653;SDS011;49809;47.418;19.080;2024-03-17T08:37:30;3.95;;;1.27;;
63653;SDS011;49809;47.418;19.080;2024-03-17T08:40:33;2.22;;;1.23;;
63653;SDS011;49809;47.418;19.080;2024-03-17T08:43:37;3.35;;;1.10;;
63653;SDS011;49809;47.418;19.080;2024-03-17T08:49:50;1.20;;;0.80;;
63653;SDS011;49809;47.418;19.080;2024-03-17T08:52:52;2.08;;;1.05;;
63653;SDS011;49809;47.418;19.080;2024-03-17T08:55:57;1.87;;;1.00;;
63653;SDS011;49809;47.418;19.080;2024-03-17T08:59:01;2.03;;;1.00;;
63653;SDS011;49809;47.418;19.080;2024-03-17T09:02:03;3.15;;;1.02;;
63653;SDS011;49809;47.418;19.080;2024-03-17T09:05:05;3.22;;;1.17;;
63653;SDS011;49809;47.418;19.080;2024-03-17T09:08:07;3.53;;;1.05;;
63653;SDS011;49809;47.418;19.080;2024-03-17T09:11:17;3.12;;;1.10;;
63653;SDS011;49809;47.418;19.080;2024-03-17T09:14:26;1.75;;;0.77;;
63653;SDS011;49809;47.418;19.080;2024-03-17T09:17:31;3.78;;;1.35;;
63653;SDS011;49809;47.418;19.080;2024-03-17T09:20:32;2.40;;;1.00;;
63653;SDS011;49809;47.418;19.080;2024-03-17T09:23:37;4.32;;;1.00;;
63653;SDS011;49809;47.418;19.080;2024-03-17T09:26:41;2.28;;;1.00;;
63653;SDS011;49809;47.418;19.080;2024-03-17T09:29:43;1.55;;;0.80;;
63653;SDS011;49809;47.418;19.080;2024-03-17T09:32:45;2.58;;;0.82;;
63653;SDS011;49809;47.418;19.080;2024-03-17T09:36:00;2.08;;;0.80;;
63653;SDS011;49809;47.418;19.080;2024-03-17T09:39:03;1.45;;;0.77;;
63653;SDS011;49809;47.418;19.080;2024-03-17T09:42:09;2.30;;;1.33;;
63653;SDS011;49809;47.418;19.080;2024-03-17T09:45:22;2.17;;;0.93;;
63653;SDS011;49809;47.418;19.080;2024-03-17T09:48:26;2.47;;;1.10;;
63653;SDS011;49809;47.418;19.080;2024-03-17T09:51:33;1.62;;;0.90;;
63653;SDS011;49809;47.418;19.080;2024-03-17T09:54:38;3.22;;;1.08;;
63653;SDS011;49809;47.418;19.080;2024-03-17T09:57:40;2.28;;;0.90;;
63653;SDS011;49809;47.418;19.080;2024-03-17T10:00:43;3.20;;;0.98;;
63653;SDS011;49809;47.418;19.080;2024-03-17T10:03:49;2.33;;;1.00;;
63653;SDS011;49809;47.418;19.080;2024-03-17T10:06:55;2.12;;;1.00;;
63653;SDS011;49809;47.418;19.080;2024-03-17T10:10:10;2.65;;;0.98;;
63653;SDS011;49809;47.418;19.080;2024-03-17T10:13:13;1.87;;;0.90;;
63653;SDS011;49809;47.418;19.080;2024-03-17T10:16:25;1.70;;;0.90;;
63653;SDS011;49809;47.418;19.080;2024-03-17T10:19:29;3.22;;;0.90;;
63653;SDS011;49809;47.418;19.080;2024-03-17T10:22:30;3.08;;;0.82;;
63653;SDS011;49809;47.418;19.080;2024-03-17T10:25:34;3.40;;;0.85;;
63653;SDS011;49809;47.418;19.080;2024-03-17T10:28:43;1.67;;;0.80;;
63653;SDS011;49809;47.418;19.080;2024-03-17T10:31:45;2.60;;;0.90;;
63653;SDS011;49809;47.418;19.080;2024-03-17T10:34:47;2.12;;;0.80;;
63653;SDS011;49809;47.418;19.080;2024-03-17T10:37:56;2.78;;;0.95;;
63653;SDS011;49809;47.418;19.080;2024-03-17T10:41:06;2.70;;;0.88;;
63653;SDS011;49809;47.418;19.080;2024-03-17T10:44:13;4.37;;;1.00;;
63653;SDS011;49809;47.418;19.080;2024-03-17T10:47:22;1.87;;;1.02;;
63653;SDS011;49809;47.418;19.080;2024-03-17T10:50:30;2.15;;;0.90;;
63653;SDS011;49809;47.418;19.080;2024-03-17T10:53:35;2.47;;;1.02;;
63653;SDS011;49809;47.418;19.080;2024-03-17T10:56:40;1.85;;;1.20;;
63653;SDS011;49809;47.418;19.080;2024-03-17T10:59:45;3.03;;;1.10;;
63653;SDS011;49809;47.418;19.080;2024-03-17T11:02:57;1.95;;;1.10;;
63653;SDS011;49809;47.418;19.080;2024-03-17T11:06:00;3.62;;;1.05;;
63653;SDS011;49809;47.418;19.080;2024-03-17T11:09:06;2.90;;;1.20;;
63653;SDS011;49809;47.418;19.080;2024-03-17T11:15:39;2.95;;;1.12;;
63653;SDS011;49809;47.418;19.080;2024-03-17T11:18:42;2.80;;;1.12;;
63653;SDS011;49809;47.418;19.080;2024-03-17T11:21:43;2.08;;;1.12;;
63653;SDS011;49809;47.418;19.080;2024-03-17T11:24:51;3.62;;;1.77;;
63653;SDS011;49809;47.418;19.080;2024-03-17T11:27:53;2.65;;;1.25;;
63653;SDS011;49809;47.418;19.080;2024-03-17T11:30:57;2.40;;;1.40;;
63653;SDS011;49809;47.418;19.080;2024-03-17T11:37:41;2.92;;;1.27;;
63653;SDS011;49809;47.418;19.080;2024-03-17T11:40:44;2.40;;;1.20;;
63653;SDS011;49809;47.418;19.080;2024-03-17T11:43:46;3.30;;;1.12;;
63653;SDS011;49809;47.418;19.080;2024-03-17T11:47:11;1.45;;;1.10;;
63653;SDS011;49809;47.418;19.080;2024-03-17T11:50:15;2.42;;;1.37;;
63653;SDS011;49809;47.418;19.080;2024-03-17T11:53:17;1.62;;;1.10;;
63653;SDS011;49809;47.418;19.080;2024-03-17T11:56:25;2.60;;;1.10;;
63653;SDS011;49809;47.418;19.080;2024-03-17T11:59:31;1.85;;;1.20;;
63653;SDS011;49809;47.418;19.080;2024-03-17T12:02:36;2.37;;;1.30;;
63653;SDS011;49809;47.418;19.080;2024-03-17T12:05:40;4.55;;;1.40;;
63653;SDS011;49809;47.418;19.080;2024-03-17T12:08:43;3.03;;;1.40;;
63653;SDS011;49809;47.418;19.080;2024-03-17T12:11:50;2.03;;;1.10;;
63653;SDS011;49809;47.418;19.080;2024-03-17T12:15:02;3.58;;;1.40;;
63653;SDS011;49809;47.418;19.080;2024-03-17T12:18:19;4.78;;;1.02;;
63653;SDS011;49809;47.418;19.080;2024-03-17T12:21:21;2.47;;;1.10;;
63653;SDS011;49809;47.418;19.080;2024-03-17T12:24:27;3.80;;;1.20;;
63653;SDS011;49809;47.418;19.080;2024-03-17T12:27:33;2.25;;;1.12;;
63653;SDS011;49809;47.418;19.080;2024-03-17T12:30:35;4.32;;;1.98;;
63653;SDS011;49809;47.418;19.080;2024-03-17T12:33:37;13.23;;;2.90;;
63653;SDS011;49809;47.418;19.080;2024-03-17T12:36:46;4.20;;;1.17;;
63653;SDS011;49809;47.418;19.080;2024-03-17T12:39:49;3.28;;;1.20;;
63653;SDS011;49809;47.418;19.080;2024-03-17T12:42:53;2.58;;;1.10;;
63653;SDS011;49809;47.418;19.080;2024-03-17T12:45:56;1.17;;;0.93;;
63653;SDS011;49809;47.418;19.080;2024-03-17T12:49:02;2.75;;;0.90;;
63653;SDS011;49809;47.418;19.080;2024-03-17T12:52:05;6.18;;;1.30;;
63653;SDS011;49809;47.418;19.080;2024-03-17T12:55:31;2.10;;;0.80;;
63653;SDS011;49809;47.418;19.080;2024-03-17T12:58:52;2.20;;;0.90;;
63653;SDS011;49809;47.418;19.080;2024-03-17T13:02:13;2.55;;;0.90;;
63653;SDS011;49809;47.418;19.080;2024-03-17T13:05:19;2.22;;;0.90;;
63653;SDS011;49809;47.418;19.080;2024-03-17T13:08:25;2.55;;;0.80;;
63653;SDS011;49809;47.418;19.080;2024-03-17T13:11:27;2.35;;;1.00;;
63653;SDS011;49809;47.418;19.080;2024-03-17T13:14:30;1.45;;;0.75;;
63653;SDS011;49809;47.418;19.080;2024-03-17T13:17:35;2.95;;;1.12;;
63653;SDS011;49809;47.418;19.080;2024-03-17T13:20:40;3.72;;;0.80;;
63653;SDS011;49809;47.418;19.080;2024-03-17T13:23:42;1.80;;;0.80;;
63653;SDS011;49809;47.418;19.080;2024-03-17T13:26:44;1.92;;;0.80;;
63653;SDS011;49809;47.418;19.080;2024-03-17T13:29:49;2.12;;;0.82;;
63653;SDS011;49809;47.418;19.080;2024-03-17T13:32:51;1.98;;;0.80;;
63653;SDS011;49809;47.418;19.080;2024-03-17T13:36:02;2.30;;;0.70;;
63653;SDS011;49809;47.418;19.080;2024-03-17T13:39:06;1.73;;;0.85;;
63653;SDS011;49809;47.418;19.080;2024-03-17T13:42:11;2.03;;;0.90;;
63653;SDS011;49809;47.418;19.080;2024-03-17T13:45:13;2.47;;;0.98;;
63653;SDS011;49809;47.418;19.080;2024-03-17T13:48:16;3.00;;;1.10;;
63653;SDS011;49809;47.418;19.080;2024-03-17T13:51:18;1.48;;;0.75;;
63653;SDS011;49809;47.418;19.080;2024-03-17T13:54:22;1.30;;;0.80;;
63653;SDS011;49809;47.418;19.080;2024-03-17T13:57:28;1.87;;;0.90;;
63653;SDS011;49809;47.418;19.080;2024-03-17T14:00:33;1.83;;;0.90;;
63653;SDS011;49809;47.418;19.080;2024-03-17T14:03:39;2.08;;;0.85;;
63653;SDS011;49809;47.418;19.080;2024-03-17T14:06:43;1.92;;;1.00;;
63653;SDS011;49809;47.418;19.080;2024-03-17T14:09:50;1.85;;;1.10;;
63653;SDS011;49809;47.418;19.080;2024-03-17T14:12:52;2.42;;;1.00;;
63653;SDS011;49809;47.418;19.080;2024-03-17T14:15:58;2.72;;;0.80;;
63653;SDS011;49809;47.418;19.080;2024-03-17T14:19:00;1.95;;;1.25;;
63653;SDS011;49809;47.418;19.080;2024-03-17T14:22:05;3.47;;;1.20;;
63653;SDS011;49809;47.418;19.080;2024-03-17T14:25:08;2.05;;;0.90;;
63653;SDS011;49809;47.418;19.080;2024-03-17T14:28:16;5.20;;;1.67;;
63653;SDS011;49809;47.418;19.080;2024-03-17T14:31:40;2.37;;;1.00;;
63653;SDS011;49809;47.418;19.080;2024-03-17T14:34:48;2.78;;;1.45;;
63653;SDS011;49809;47.418;19.080;2024-03-17T14:37:50;2.60;;;1.00;;
63653;SDS011;49809;47.418;19.080;2024-03-17T14:44:48;2.75;;;1.40;;
63653;SDS011;49809;47.418;19.080;2024-03-17T14:48:09;2.58;;;1.00;;
63653;SDS011;49809;47.418;19.080;2024-03-17T14:51:10;2.40;;;1.15;;
63653;SDS011;49809;47.418;19.080;2024-03-17T14:57:25;2.25;;;1.08;;
63653;SDS011;49809;47.418;19.080;2024-03-17T15:00:31;4.53;;;1.37;;
63653;SDS011;49809;47.418;19.080;2024-03-17T15:03:36;2.33;;;1.10;;
63653;SDS011;49809;47.418;19.080;2024-03-17T15:10:08;1.95;;;1.05;;
63653;SDS011;49809;47.418;19.080;2024-03-17T15:13:33;3.45;;;1.05;;
63653;SDS011;49809;47.418;19.080;2024-03-17T15:16:38;1.75;;;1.10;;
63653;SDS011;49809;47.418;19.080;2024-03-17T15:19:46;5.03;;;1.00;;
63653;SDS011;49809;47.418;19.080;2024-03-17T15:22:48;7.57;;;1.30;;
63653;SDS011;49809;47.418;19.080;2024-03-17T15:25:51;2.53;;;1.20;;
63653;SDS011;49809;47.418;19.080;2024-03-17T15:29:09;2.35;;;1.40;;
63653;SDS011;49809;47.418;19.080;2024-03-17T15:32:15;3.13;;;1.50;;
63653;SDS011;49809;47.418;19.080;2024-03-17T15:35:18;4.55;;;1.10;;
63653;SDS011;49809;47.418;19.080;2024-03-17T15:38:20;4.15;;;1.30;;
63653;SDS011;49809;47.418;19.080;2024-03-17T15:41:23;6.80;;;1.37;;
63653;SDS011;49809;47.418;19.080;2024-03-17T15:44:25;1.87;;;1.40;;
63653;SDS011;49809;47.418;19.080;2024-03-17T15:47:32;4.15;;;1.40;;
63653;SDS011;49809;47.418;19.080;2024-03-17T15:50:35;4.85;;;1.35;;
63653;SDS011;49809;47.418;19.080;2024-03-17T15:53:37;2.17;;;1.40;;
63653;SDS011;49809;47.418;19.080;2024-03-17T15:56:42;2.95;;;1.45;;
63653;SDS011;49809;47.418;19.080;2024-03-17T15:59:47;1.87;;;1.33;;
63653;SDS011;49809;47.418;19.080;2024-03-17T16:02:50;4.07;;;1.40;;
63653;SDS011;49809;47.418;19.080;2024-03-17T16:05:52;4.93;;;1.60;;
63653;SDS011;49809;47.418;19.080;2024-03-17T16:09:01;9.00;;;1.75;;
63653;SDS011;49809;47.418;19.080;2024-03-17T16:12:05;2.37;;;1.40;;
63653;SDS011;49809;47.418;19.080;2024-03-17T16:15:07;6.87;;;1.70;;
63653;SDS011;49809;47.418;19.080;2024-03-17T16:18:10;3.55;;;1.40;;
63653;SDS011;49809;47.418;19.080;2024-03-17T16:21:37;3.63;;;2.03;;
63653;SDS011;49809;47.418;19.080;2024-03-17T16:24:45;1.90;;;1.30;;
63653;SDS011;49809;47.418;19.080;2024-03-17T16:27:52;3.50;;;1.52;;
63653;SDS011;49809;47.418;19.080;2024-03-17T16:31:24;4.40;;;1.40;;
63653;SDS011;49809;47.418;19.080;2024-03-17T16:34:27;4.10;;;1.55;;
63653;SDS011;49809;47.418;19.080;2024-03-17T16:37:33;3.93;;;1.60;;
63653;SDS011;49809;47.418;19.080;2024-03-17T16:40:34;3.08;;;1.45;;
63653;SDS011;49809;47.418;19.080;2024-03-17T16:43:43;3.40;;;1.70;;
63653;SDS011;49809;47.418;19.080;2024-03-17T16:47:34;5.30;;;2.25;;
63653;SDS011;49809;47.418;19.080;2024-03-17T16:50:36;7.22;;;2.40;;
63653;SDS011;49809;47.418;19.080;2024-03-17T16:53:44;7.32;;;1.83;;
63653;SDS011;49809;47.418;19.080;2024-03-17T16:56:48;10.50;;;1.70;;
63653;SDS011;49809;47.418;19.080;2024-03-17T16:59:49;4.43;;;2.00;;
63653;SDS011;49809;47.418;19.080;2024-03-17T17:02:53;3.60;;;1.83;;
63653;SDS011;49809;47.418;19.080;2024-03-17T17:05:55;2.78;;;1.60;;
63653;SDS011;49809;47.418;19.080;2024-03-17T17:09:02;3.10;;;1.83;;
63653;SDS011;49809;47.418;19.080;2024-03-17T17:12:07;5.03;;;2.17;;
63653;SDS011;49809;47.418;19.080;2024-03-17T17:15:17;3.97;;;1.70;;
63653;SDS011;49809;47.418;19.080;2024-03-17T17:21:54;2.65;;;1.87;;
63653;SDS011;49809;47.418;19.080;2024-03-17T17:24:58;5.03;;;1.95;;
63653;SDS011;49809;47.418;19.080;2024-03-17T17:28:20;4.90;;;1.87;;
63653;SDS011;49809;47.418;19.080;2024-03-17T17:31:29;5.03;;;1.80;;
63653;SDS011;49809;47.418;19.080;2024-03-17T17:34:35;6.00;;;1.80;;
63653;SDS011;49809;47.418;19.080;2024-03-17T17:37:41;2.83;;;1.85;;
63653;SDS011;49809;47.418;19.080;2024-03-17T17:40:47;3.67;;;1.73;;
63653;SDS011;49809;47.418;19.080;2024-03-17T17:43:52;3.55;;;2.00;;
63653;SDS011;49809;47.418;19.080;2024-03-17T17:46:55;3.20;;;1.67;;
63653;SDS011;49809;47.418;19.080;2024-03-17T17:49:57;4.90;;;1.87;;
63653;SDS011;49809;47.418;19.080;2024-03-17T17:52:59;4.12;;;2.42;;
63653;SDS011;49809;47.418;19.080;2024-03-17T17:56:04;4.05;;;2.35;;
63653;SDS011;49809;47.418;19.080;2024-03-17T17:59:16;2.70;;;1.83;;
63653;SDS011;49809;47.418;19.080;2024-03-17T18:02:18;3.30;;;2.12;;
63653;SDS011;49809;47.418;19.080;2024-03-17T18:05:20;6.62;;;2.22;;
63653;SDS011;49809;47.418;19.080;2024-03-17T18:08:24;4.00;;;2.00;;
63653;SDS011;49809;47.418;19.080;2024-03-17T18:14:34;4.57;;;1.92;;
63653;SDS011;49809;47.418;19.080;2024-03-17T18:17:40;3.45;;;2.08;;
63653;SDS011;49809;47.418;19.080;2024-03-17T18:23:54;3.53;;;1.77;;
63653;SDS011;49809;47.418;19.080;2024-03-17T18:27:03;4.07;;;1.98;;
63653;SDS011;49809;47.418;19.080;2024-03-17T18:30:14;4.00;;;1.83;;
63653;SDS011;49809;47.418;19.080;2024-03-17T18:33:19;3.58;;;1.70;;
63653;SDS011;49809;47.418;19.080;2024-03-17T18:36:22;5.37;;;2.10;;
63653;SDS011;49809;47.418;19.080;2024-03-17T18:39:23;4.07;;;2.03;;
63653;SDS011;49809;47.418;19.080;2024-03-17T18:42:28;6.65;;;2.50;;
63653;SDS011;49809;47.418;19.080;2024-03-17T18:45:34;3.60;;;1.83;;
63653;SDS011;49809;47.418;19.080;2024-03-17T18:48:37;3.55;;;1.85;;
63653;SDS011;49809;47.418;19.080;2024-03-17T18:51:39;3.70;;;1.70;;
63653;SDS011;49809;47.418;19.080;2024-03-17T18:54:45;3.40;;;1.83;;
63653;SDS011;49809;47.418;19.080;2024-03-17T18:57:50;4.68;;;1.45;;
63653;SDS011;49809;47.418;19.080;2024-03-17T19:00:52;5.15;;;1.75;;